Time;durP1;ratioP1;P1;durP2;ratioP2;P2;SDS_P1;SDS_P2;PMS_P1;PMS_P2;Temp;Humidity;BMP_temperature;BMP_pressure;BME280_temperature;BME280_humidity;BME280_pressure;Samples;Min_cycle;Max_cycle;Signal;HPM_P1;HPM_P2
2022/04/13 00:01:08;;;;;;;3.77;2.80;;;21.10;50.60;22.40;100385.00;;;;5068128;28;20221;-51
2022/04/13 00:03:33;;;;;;;3.00;2.70;;;21.10;50.60;22.30;100395.00;;;;5067876;28;20177;-51
2022/04/13 00:05:59;;;;;;;3.47;2.80;;;21.10;50.60;22.30;100381.00;;;;5067862;28;20186;-51
2022/04/13 00:08:25;;;;;;;3.50;3.00;;;21.10;50.60;22.30;100390.00;;;;5069997;28;20834;-51
2022/04/13 00:10:50;;;;;;;2.97;2.70;;;21.00;50.50;22.30;100391.00;;;;5069942;28;20217;-50
2022/04/13 00:13:16;;;;;;;4.00;2.80;;;21.00;50.60;22.30;100394.00;;;;5069146;28;20204;-51
2022/04/13 00:15:42;;;;;;;4.50;2.87;;;21.00;50.60;22.30;100389.00;;;;5068465;28;20304;-51
2022/04/13 00:18:08;;;;;;;3.90;2.77;;;21.00;50.60;22.20;100382.00;;;;5069284;28;20188;-51
2022/04/13 00:20:35;;;;;;;2.80;2.60;;;21.00;50.60;22.20;100398.00;;;;5069908;28;20200;-51
2022/04/13 00:23:01;;;;;;;3.30;3.00;;;21.00;50.60;22.20;100391.00;;;;5069096;28;20180;-51
2022/04/13 00:25:28;;;;;;;2.83;2.60;;;21.00;50.60;22.20;100393.00;;;;5067628;28;20187;-51
2022/04/13 00:27:54;;;;;;;3.30;3.00;;;21.00;50.60;22.20;100392.00;;;;5070236;28;20575;-51
2022/04/13 00:30:19;;;;;;;2.90;2.70;;;20.90;50.60;22.20;100397.00;;;;5070549;28;20194;-52
2022/04/13 00:32:45;;;;;;;2.87;2.67;;;20.90;50.60;22.20;100389.00;;;;5068487;28;20188;-52
2022/04/13 00:35:11;;;;;;;3.10;2.77;;;20.90;50.60;22.20;100405.00;;;;5068228;28;20181;-51
2022/04/13 00:37:38;;;;;;;3.00;2.70;;;20.90;50.60;22.20;100408.00;;;;5067825;28;20237;-51
2022/04/13 00:40:04;;;;;;;3.40;2.70;;;20.90;50.60;22.10;100398.00;;;;5067930;28;20260;-52
2022/04/13 00:42:30;;;;;;;2.90;2.70;;;20.90;50.70;22.10;100396.00;;;;5068208;28;20179;-51
2022/04/13 00:44:56;;;;;;;3.13;2.83;;;20.90;50.70;22.10;100398.00;;;;5068006;28;20185;-51
2022/04/13 00:47:22;;;;;;;2.90;2.60;;;20.90;50.70;22.10;100396.00;;;;5068193;28;20259;-51
2022/04/13 00:49:47;;;;;;;3.10;2.80;;;20.80;50.70;22.10;100403.00;;;;5066758;28;20293;-52
2022/04/13 00:52:13;;;;;;;2.93;2.63;;;20.80;50.70;21.90;100407.00;;;;5066898;28;20736;-51
2022/04/13 00:54:41;;;;;;;3.07;2.80;;;20.80;50.70;22.00;100418.00;;;;5066333;28;20211;-51
2022/04/13 00:57:09;;;;;;;3.00;2.67;;;20.80;50.70;22.00;100411.00;;;;5066447;28;20173;-51
2022/04/13 00:59:39;;;;;;;2.80;2.60;;;20.80;50.70;22.00;100410.00;;;;5067611;28;20234;-51
2022/04/13 01:02:06;;;;;;;2.90;2.70;;;20.80;50.80;22.00;100415.00;;;;5067298;28;20236;-52
2022/04/13 01:04:32;;;;;;;3.40;2.80;;;20.80;50.80;22.00;100409.00;;;;5067090;28;20181;-51
2022/04/13 01:06:58;;;;;;;3.40;2.97;;;20.80;50.90;21.90;100409.00;;;;5049416;28;20169;-52
2022/04/13 01:09:25;;;;;;;3.30;3.00;;;20.80;50.80;21.90;100422.00;;;;5074845;28;20203;-50
2022/04/13 01:11:50;;;;;;;3.13;2.83;;;20.70;50.80;21.90;100416.00;;;;5038303;28;20330;-52
2022/04/13 01:14:16;;;;;;;3.43;2.90;;;20.70;50.70;21.90;100416.00;;;;5069556;28;20208;-51
2022/04/13 01:16:42;;;;;;;3.00;2.70;;;20.70;50.70;21.50;100413.00;;;;5067070;28;20176;-51
2022/04/13 01:19:13;;;;;;;2.77;2.53;;;20.70;50.80;21.90;100417.00;;;;5067364;28;20177;-52
2022/04/13 01:21:45;;;;;;;3.07;2.77;;;20.70;50.70;21.80;100417.00;;;;5066541;28;20263;-52
2022/04/13 01:24:11;;;;;;;3.00;2.70;;;20.70;50.80;21.80;100419.00;;;;5074996;28;20169;-52
2022/04/13 01:26:37;;;;;;;3.70;2.70;;;20.70;50.80;21.80;100421.00;;;;5067160;28;20179;-52
2022/04/13 01:29:03;;;;;;;3.50;2.70;;;20.70;50.80;21.80;100423.00;;;;5066132;28;20317;-52
2022/04/13 01:31:29;;;;;;;2.90;2.70;;;20.70;50.80;21.80;100433.00;;;;5066907;28;20217;-52
2022/04/13 01:33:56;;;;;;;3.50;2.80;;;20.60;50.70;21.80;100434.00;;;;5066854;28;20781;-52
2022/04/13 01:36:22;;;;;;;4.53;2.93;;;20.60;50.70;21.80;100428.00;;;;5066723;28;20176;-52
2022/04/13 01:38:47;;;;;;;2.80;2.60;;;20.60;50.70;21.70;100444.00;;;;5066690;28;20760;-52
2022/04/13 01:41:13;;;;;;;2.67;2.47;;;20.60;50.70;21.70;100446.00;;;;5066802;28;20658;-52
2022/04/13 01:43:39;;;;;;;3.07;2.77;;;20.60;50.80;21.70;100435.00;;;;5067091;28;20183;-52
2022/04/13 01:46:04;;;;;;;3.70;2.83;;;20.60;50.80;21.70;100433.00;;;;5068199;28;20577;-53
2022/04/13 01:48:31;;;;;;;2.80;2.60;;;20.50;50.80;21.70;100439.00;;;;5070486;28;20201;-52
2022/04/13 01:51:00;;;;;;;3.20;2.40;;;20.60;50.90;21.70;100445.00;;;;5068015;28;20200;-52
2022/04/13 01:53:26;;;;;;;2.80;2.60;;;20.60;50.90;21.60;100433.00;;;;5066576;28;20180;-51
2022/04/13 01:55:53;;;;;;;2.67;2.47;;;20.50;50.90;21.60;100444.00;;;;5066660;28;20543;-52
2022/04/13 01:58:20;;;;;;;2.80;2.60;;;20.50;50.90;21.60;100440.00;;;;5066763;28;20167;-51
2022/04/13 02:00:46;;;;;;;3.00;2.70;;;20.50;50.90;21.60;100440.00;;;;5065247;28;20208;-52
2022/04/13 02:03:11;;;;;;;2.90;2.70;;;20.50;50.90;21.60;100445.00;;;;5066488;28;20208;-52
2022/04/13 02:05:37;;;;;;;2.70;2.50;;;20.50;51.00;21.60;100440.00;;;;5066706;28;20169;-51
2022/04/13 02:08:03;;;;;;;2.50;2.30;;;20.50;51.00;21.60;100442.00;;;;5066261;28;20206;-52
2022/04/13 02:10:29;;;;;;;2.70;2.50;;;20.50;51.00;21.50;100439.00;;;;5065219;28;20230;-52
2022/04/13 02:12:55;;;;;;;3.10;2.80;;;20.40;50.90;21.50;100442.00;;;;5065056;28;20590;-51
2022/04/13 02:15:21;;;;;;;2.70;2.50;;;20.40;51.00;21.50;100444.00;;;;5066453;28;20189;-51
2022/04/13 02:17:46;;;;;;;2.60;2.40;;;20.40;51.00;21.50;100443.00;;;;5066145;28;20175;-50
2022/04/13 02:20:12;;;;;;;2.73;2.53;;;20.40;51.00;21.50;100451.00;;;;5066296;28;20202;-51
2022/04/13 02:22:38;;;;;;;2.90;2.70;;;20.40;51.00;21.50;100459.00;;;;5066315;28;20179;-51
2022/04/13 02:25:05;;;;;;;3.27;2.97;;;20.40;51.00;21.50;100459.00;;;;5066099;28;20846;-51
2022/04/13 02:27:31;;;;;;;2.50;2.30;;;20.40;51.10;21.50;100445.00;;;;5066564;28;20174;-52
2022/04/13 02:29:57;;;;;;;2.70;2.50;;;20.30;51.20;21.40;100460.00;;;;5065376;28;20169;-52
2022/04/13 02:32:23;;;;;;;2.83;2.63;;;20.30;51.20;21.40;100460.00;;;;5066372;28;20248;-52
2022/04/13 02:34:49;;;;;;;2.57;2.37;;;20.30;51.20;21.40;100468.00;;;;5066374;28;20200;-52
2022/04/13 02:37:18;;;;;;;2.70;2.50;;;20.30;51.20;21.40;100475.00;;;;5071160;28;20301;-52
2022/04/13 02:39:44;;;;;;;2.97;2.50;;;20.30;51.20;21.40;100468.00;;;;5077318;28;20654;-53
2022/04/13 02:42:14;;;;;;;2.63;2.40;;;20.30;51.20;21.40;100466.00;;;;5079637;28;20754;-52
2022/04/13 02:44:43;;;;;;;3.10;2.60;;;20.30;51.20;21.40;100470.00;;;;5068630;28;20171;-52
2022/04/13 02:47:10;;;;;;;3.10;2.80;;;20.30;51.30;21.40;100457.00;;;;5065720;28;20209;-52
2022/04/13 02:49:36;;;;;;;2.73;2.47;;;20.30;51.20;21.30;100480.00;;;;5067217;28;20285;-52
2022/04/13 02:52:02;;;;;;;2.90;2.70;;;20.20;51.30;21.30;100486.00;;;;5067872;28;20188;-52
2022/04/13 02:54:28;;;;;;;2.90;2.53;;;20.20;51.20;21.30;100481.00;;;;5069489;28;20167;-51
2022/04/13 02:56:53;;;;;;;2.67;2.47;;;20.20;51.30;21.30;100473.00;;;;5070000;28;20168;-52
2022/04/13 02:59:19;;;;;;;2.87;2.60;;;20.20;51.30;21.30;100476.00;;;;5070580;28;20188;-51
2022/04/13 03:01:47;;;;;;;2.60;2.40;;;20.20;51.30;21.30;100492.00;;;;5069953;28;20208;-51
2022/04/13 03:04:13;;;;;;;2.73;2.53;;;20.20;51.30;21.30;100493.00;;;;5070277;28;20253;-51
2022/04/13 03:06:39;;;;;;;2.80;2.50;;;20.20;51.30;21.20;100497.00;;;;5076350;28;20203;-53
2022/04/13 03:09:05;;;;;;;2.70;2.50;;;20.10;51.30;21.20;100491.00;;;;5072884;28;20691;-51
2022/04/13 03:11:31;;;;;;;4.03;2.70;;;20.10;51.90;21.20;100503.00;;;;5069500;28;20423;-52
2022/04/13 03:13:56;;;;;;;2.87;2.67;;;20.10;51.30;21.20;100505.00;;;;5070037;28;20167;-50
2022/04/13 03:16:23;;;;;;;2.70;2.50;;;20.10;51.20;21.20;100497.00;;;;5076916;28;20168;-51
2022/04/13 03:18:48;;;;;;;2.83;2.60;;;20.10;51.20;21.20;100502.00;;;;5070297;28;20193;-52
2022/04/13 03:21:14;;;;;;;2.60;2.40;;;20.10;51.20;21.20;100494.00;;;;5069361;28;20187;-53
2022/04/13 03:23:40;;;;;;;2.80;2.60;;;20.10;51.30;21.20;100492.00;;;;5069366;28;20170;-53
2022/04/13 03:26:07;;;;;;;2.83;2.57;;;20.10;51.30;21.10;100511.00;;;;5069362;28;20202;-51
2022/04/13 03:28:33;;;;;;;2.90;2.50;;;20.00;51.30;21.10;100506.00;;;;5069235;28;20192;-52
2022/04/13 03:30:59;;;;;;;2.90;2.60;;;20.00;51.30;21.10;100511.00;;;;5069673;28;20186;-52
2022/04/13 03:33:25;;;;;;;2.70;2.40;;;20.00;51.30;21.20;100508.00;;;;5069611;28;20243;-52
2022/04/13 03:35:50;;;;;;;3.63;2.70;;;20.10;51.50;21.20;100516.00;;;;5068878;28;20168;-51
2022/04/13 03:38:16;;;;;;;3.47;2.50;;;20.10;51.60;20.90;100510.00;;;;5069435;28;20190;-51
2022/04/13 03:40:42;;;;;;;2.77;2.40;;;20.10;51.60;21.10;100507.00;;;;5069298;28;20190;-51
2022/04/13 03:43:08;;;;;;;2.80;2.57;;;20.00;51.40;21.10;100506.00;;;;5069604;28;20687;-51
2022/04/13 03:45:33;;;;;;;2.80;2.60;;;20.00;51.40;21.10;100521.00;;;;5068937;28;20299;-52
2022/04/13 03:47:59;;;;;;;2.70;2.40;;;20.00;51.30;21.10;100514.00;;;;5067580;28;20591;-52
2022/04/13 03:50:25;;;;;;;6.43;2.60;;;20.00;51.20;21.10;100520.00;;;;5068682;28;20192;-51
2022/04/13 03:52:50;;;;;;;2.70;2.50;;;20.00;51.20;21.10;100515.00;;;;5069003;28;20173;-51
2022/04/13 03:55:19;;;;;;;5.70;2.73;;;20.00;51.20;21.00;100521.00;;;;5069528;28;20169;-52
2022/04/13 03:57:44;;;;;;;4.53;2.70;;;20.00;51.10;21.00;100517.00;;;;5067530;28;20849;-51
2022/04/13 04:00:11;;;;;;;3.20;2.70;;;19.90;51.10;21.00;100523.00;;;;5069908;28;20189;-51
2022/04/13 04:02:38;;;;;;;3.07;2.53;;;19.90;51.00;21.00;100525.00;;;;5069449;28;20159;-52
2022/04/13 04:05:04;;;;;;;3.13;2.70;;;19.90;51.00;21.00;100524.00;;;;5058818;28;20179;-52
2022/04/13 04:07:30;;;;;;;2.90;2.70;;;19.90;51.00;21.00;100535.00;;;;5062946;28;20170;-51
2022/04/13 04:09:55;;;;;;;2.60;2.40;;;19.90;51.10;21.00;100525.00;;;;5053440;28;20159;-52
2022/04/13 04:12:21;;;;;;;2.73;2.53;;;19.90;51.00;21.00;100544.00;;;;5047187;28;20166;-52
2022/04/13 04:14:47;;;;;;;3.10;2.70;;;19.90;51.00;21.00;100541.00;;;;5048776;28;20177;-52
2022/04/13 04:17:12;;;;;;;2.40;2.20;;;19.90;51.00;20.90;100538.00;;;;5048267;28;20174;-52
2022/04/13 04:19:38;;;;;;;2.93;2.70;;;19.90;51.00;20.90;100545.00;;;;5048994;28;20825;-52
2022/04/13 04:22:04;;;;;;;3.00;2.70;;;19.80;50.80;20.90;100544.00;;;;5048970;28;20699;-51
2022/04/13 04:24:29;;;;;;;3.80;2.60;;;19.90;50.90;20.90;100542.00;;;;5047858;28;20182;-51
2022/04/13 04:26:57;;;;;;;3.67;2.60;;;19.80;51.60;20.90;100548.00;;;;5049990;28;20173;-51
2022/04/13 04:29:24;;;;;;;3.03;2.80;;;19.80;50.90;20.90;100547.00;;;;5051736;28;20202;-51
2022/04/13 04:31:49;;;;;;;4.57;2.97;;;19.80;50.90;20.90;100553.00;;;;5049369;28;20193;-53
2022/04/13 04:34:16;;;;;;;3.20;2.67;;;19.80;50.90;20.80;100552.00;;;;5048798;28;20179;-51
2022/04/13 04:36:42;;;;;;;4.60;2.77;;;19.80;51.00;20.80;100559.00;;;;5046780;28;20185;-51
2022/04/13 04:39:07;;;;;;;2.97;2.67;;;19.80;50.90;20.80;100545.00;;;;5048189;28;20175;-52
2022/04/13 04:41:33;;;;;;;4.17;2.70;;;19.80;51.00;20.80;100559.00;;;;5046889;28;20189;-51
2022/04/13 04:43:59;;;;;;;3.57;2.63;;;19.70;50.80;20.80;100549.00;;;;5047891;28;20177;-50
2022/04/13 04:46:25;;;;;;;4.20;2.70;;;19.70;50.90;20.80;100560.00;;;;5048032;28;20227;-50
2022/04/13 04:48:51;;;;;;;3.73;2.70;;;19.70;50.90;20.80;100552.00;;;;5046184;28;20206;-51
2022/04/13 04:51:17;;;;;;;3.53;2.80;;;19.70;50.90;20.70;100554.00;;;;5048057;28;20190;-52
2022/04/13 04:53:42;;;;;;;3.00;2.70;;;19.70;50.90;20.70;100559.00;;;;5047940;28;20165;-51
2022/04/13 04:56:08;;;;;;;3.83;3.03;;;19.70;50.90;20.70;100563.00;;;;5051968;28;20666;-51
2022/04/13 04:58:34;;;;;;;4.93;2.87;;;19.70;51.00;20.70;100562.00;;;;5048498;28;20216;-52
2022/04/13 05:00:59;;;;;;;3.83;2.80;;;19.70;50.90;20.60;100550.00;;;;5053670;28;20367;-51
2022/04/13 05:03:25;;;;;;;3.17;2.83;;;19.70;50.90;20.60;100556.00;;;;5058729;28;20181;-59
2022/04/13 05:05:51;;;;;;;3.03;2.70;;;19.60;50.80;20.60;100558.00;;;;5054940;28;20175;-53
2022/04/13 05:08:17;;;;;;;4.10;3.10;;;19.60;50.90;20.60;100572.00;;;;5052080;28;20225;-52
2022/04/13 05:10:50;;;;;;;4.90;2.70;;;19.60;50.90;20.60;100567.00;;;;5047907;28;20216;-52
2022/04/13 05:13:19;;;;;;;4.53;3.00;;;19.60;50.90;20.60;100569.00;;;;5047685;28;20159;-52
2022/04/13 05:15:48;;;;;;;3.10;2.80;;;19.60;50.90;20.60;100567.00;;;;5046481;28;20518;-52
2022/04/13 05:18:14;;;;;;;3.40;2.60;;;19.60;50.80;20.60;100567.00;;;;5047062;28;20178;-52
2022/04/13 05:20:40;;;;;;;3.07;2.70;;;19.60;50.90;20.60;100565.00;;;;5046126;28;20867;-52
2022/04/13 05:23:06;;;;;;;2.87;2.60;;;19.60;50.90;20.60;100568.00;;;;5046855;28;20174;-52
2022/04/13 05:25:31;;;;;;;3.03;2.63;;;19.50;50.90;20.50;100572.00;;;;5045945;28;20182;-52
2022/04/13 05:27:57;;;;;;;3.00;2.70;;;19.60;50.90;20.50;100571.00;;;;5047504;28;20208;-52
2022/04/13 05:30:23;;;;;;;2.90;2.60;;;19.50;50.90;20.50;100574.00;;;;5047889;28;20193;-52
2022/04/13 05:32:56;;;;;;;5.23;2.73;;;19.50;50.90;20.50;100581.00;;;;5047462;28;20308;-52
2022/04/13 05:35:23;;;;;;;3.07;2.60;;;19.50;50.90;20.50;100593.00;;;;5046228;28;20269;-52
2022/04/13 05:37:49;;;;;;;2.87;2.60;;;19.50;50.90;20.50;100589.00;;;;5049788;28;20269;-52
2022/04/13 05:40:15;;;;;;;2.80;2.50;;;19.50;50.90;20.50;100586.00;;;;5046783;28;20327;-52
2022/04/13 05:42:40;;;;;;;3.23;2.63;;;19.50;51.00;20.50;100594.00;;;;5046702;28;20248;-52
2022/04/13 05:45:07;;;;;;;3.10;2.77;;;19.50;51.00;20.40;100599.00;;;;5047250;28;20253;-52
2022/04/13 05:47:34;;;;;;;4.87;2.90;;;19.40;50.90;20.40;100604.00;;;;5046766;28;20674;-52
2022/04/13 05:50:00;;;;;;;4.27;2.70;;;19.40;50.90;20.40;100606.00;;;;5046707;28;20181;-52
2022/04/13 05:52:26;;;;;;;2.90;2.60;;;19.50;51.00;20.40;100606.00;;;;5046343;28;20698;-50
2022/04/13 05:54:52;;;;;;;2.80;2.60;;;19.40;50.90;20.40;100617.00;;;;5046939;28;20262;-52
2022/04/13 05:57:18;;;;;;;3.10;2.80;;;19.40;50.90;20.40;100621.00;;;;5046720;28;20182;-51
2022/04/13 05:59:43;;;;;;;3.30;2.50;;;19.40;51.00;20.40;100617.00;;;;5046874;28;20170;-52
2022/04/13 06:02:09;;;;;;;2.87;2.60;;;19.40;51.00;20.40;100615.00;;;;5045929;28;20209;-52
2022/04/13 06:04:35;;;;;;;2.67;2.47;;;19.40;51.00;20.40;100619.00;;;;5046436;28;20869;-50
2022/04/13 06:07:00;;;;;;;2.77;2.57;;;19.40;51.00;20.40;100616.00;;;;5046446;28;20198;-51
2022/04/13 06:09:26;;;;;;;2.53;2.33;;;19.30;50.90;20.30;100623.00;;;;5046594;28;20228;-51
2022/04/13 06:11:52;;;;;;;2.60;2.40;;;19.30;50.90;20.30;100631.00;;;;5050268;28;20374;-52
2022/04/13 06:14:18;;;;;;;2.80;2.60;;;19.30;50.90;20.30;100632.00;;;;5053712;28;20162;-51
2022/04/13 06:16:44;;;;;;;2.73;2.27;;;19.30;51.00;20.30;100635.00;;;;5051781;28;20827;-51
2022/04/13 06:19:10;;;;;;;2.70;2.50;;;19.30;50.90;20.30;100639.00;;;;5047124;28;20194;-51
2022/04/13 06:21:35;;;;;;;2.57;2.37;;;19.30;51.00;20.30;100654.00;;;;5045792;28;20188;-51
2022/04/13 06:24:01;;;;;;;2.63;2.33;;;19.30;51.00;20.30;100663.00;;;;5046337;28;20781;-51
2022/04/13 06:26:27;;;;;;;3.10;2.80;;;19.30;51.00;20.30;100664.00;;;;5048794;28;20183;-51
2022/04/13 06:28:52;;;;;;;2.93;2.67;;;19.30;51.00;20.30;100667.00;;;;5050304;28;20198;-52
2022/04/13 06:31:19;;;;;;;3.13;2.60;;;19.30;51.00;20.30;100666.00;;;;5050320;28;20225;-50
2022/04/13 06:33:45;;;;;;;2.80;2.60;;;19.30;51.00;20.30;100665.00;;;;5049948;28;20181;-51
2022/04/13 06:36:10;;;;;;;2.70;2.50;;;19.30;51.00;20.30;100669.00;;;;5050286;28;20170;-52
2022/04/13 06:38:40;;;;;;;3.87;2.70;;;19.20;50.80;20.20;100666.00;;;;5056970;28;20174;-52
2022/04/13 06:41:09;;;;;;;2.70;2.50;;;19.20;50.90;20.20;100669.00;;;;5050842;28;20692;-51
2022/04/13 06:43:35;;;;;;;2.73;2.53;;;19.20;51.00;20.20;100664.00;;;;5050317;28;20169;-52
2022/04/13 06:46:01;;;;;;;2.97;2.70;;;19.20;51.00;20.20;100672.00;;;;5050070;28;20190;-52
2022/04/13 06:48:26;;;;;;;2.73;2.53;;;19.20;51.00;20.20;100672.00;;;;5050229;28;20281;-52
2022/04/13 06:50:52;;;;;;;2.90;2.70;;;19.20;51.00;20.20;100665.00;;;;5050709;28;20256;-51
2022/04/13 06:53:18;;;;;;;3.00;2.80;;;19.20;51.00;20.20;100671.00;;;;5049881;28;20665;-51
2022/04/13 06:55:45;;;;;;;3.17;2.80;;;19.20;51.00;20.20;100670.00;;;;5050231;28;20174;-51
2022/04/13 06:58:11;;;;;;;3.00;2.70;;;19.10;50.90;20.20;100670.00;;;;5050297;28;20201;-51
2022/04/13 07:00:36;;;;;;;2.80;2.60;;;19.20;51.00;20.20;100672.00;;;;5050286;28;20206;-51
2022/04/13 07:03:02;;;;;;;2.80;2.60;;;19.20;51.10;20.20;100677.00;;;;5049227;28;20721;-51
2022/04/13 07:05:28;;;;;;;3.10;2.80;;;19.10;51.00;20.20;100682.00;;;;5050606;28;20198;-55
2022/04/13 07:07:58;;;;;;;3.40;3.03;;;19.20;51.10;20.20;100679.00;;;;5050572;28;20179;-51
2022/04/13 07:10:26;;;;;;;2.80;2.60;;;19.10;51.00;20.20;100680.00;;;;5050196;28;20186;-51
2022/04/13 07:12:52;;;;;;;2.93;2.70;;;19.20;51.00;20.20;100678.00;;;;5050449;28;20174;-51
2022/04/13 07:15:18;;;;;;;2.63;2.43;;;19.20;51.00;20.20;100664.00;;;;5049921;28;20590;-51
2022/04/13 07:17:44;;;;;;;2.80;2.60;;;19.10;51.00;20.20;100676.00;;;;5048869;28;20174;-52
2022/04/13 07:20:11;;;;;;;3.00;2.70;;;19.10;51.70;20.20;100680.00;;;;5049531;28;20686;-51
2022/04/13 07:22:53;;;;;;;2.90;2.70;;;19.10;51.10;20.20;100687.00;;;;5047879;28;20166;-51
2022/04/13 07:25:19;;;;;;;2.77;2.57;;;19.10;51.10;20.20;100684.00;;;;5049080;28;20173;-51
2022/04/13 07:27:46;;;;;;;2.90;2.70;;;19.10;51.20;20.20;100682.00;;;;5049327;28;20174;-52
2022/04/13 07:30:13;;;;;;;4.03;2.80;;;19.10;51.20;20.10;100689.00;;;;5049569;28;20186;-52
2022/04/13 07:32:38;;;;;;;3.20;2.90;;;19.10;51.20;20.20;100689.00;;;;5048542;28;20719;-51
2022/04/13 07:35:05;;;;;;;3.03;2.50;;;19.10;51.20;20.20;100686.00;;;;5049576;28;20186;-50
2022/04/13 07:37:31;;;;;;;2.80;2.60;;;19.10;51.20;20.10;100691.00;;;;5048812;28;20183;-51
2022/04/13 07:39:57;;;;;;;2.83;2.63;;;19.10;51.20;20.20;100692.00;;;;5048064;28;20258;-55
2022/04/13 07:42:24;;;;;;;3.03;2.50;;;19.20;51.40;20.20;100682.00;;;;5049019;28;20796;-51
2022/04/13 07:44:50;;;;;;;3.30;3.00;;;19.10;51.20;20.20;100698.00;;;;5048894;28;20170;-52
2022/04/13 07:47:16;;;;;;;3.00;2.70;;;19.10;51.20;20.20;100698.00;;;;5049229;28;20239;-51
2022/04/13 07:49:42;;;;;;;3.13;2.80;;;19.10;51.30;20.20;100700.00;;;;5048531;28;20222;-51
2022/04/13 07:52:08;;;;;;;3.73;2.60;;;19.10;51.30;20.20;100712.00;;;;4989094;28;20323;-54
2022/04/13 07:54:34;;;;;;;4.10;2.77;;;19.10;51.60;20.20;100700.00;;;;5074693;28;20197;-52
2022/04/13 07:57:00;;;;;;;3.73;2.60;;;19.10;51.50;20.20;100702.00;;;;5081211;28;20257;-51
2022/04/13 07:59:27;;;;;;;3.73;2.80;;;19.10;51.60;20.20;100713.00;;;;5081596;28;20252;-51
2022/04/13 08:01:53;;;;;;;3.30;2.83;;;19.10;51.50;20.20;100709.00;;;;5075441;28;20212;-53
2022/04/13 08:04:19;;;;;;;3.17;2.80;;;19.10;51.50;20.20;100716.00;;;;5071001;28;20651;-51
2022/04/13 08:06:44;;;;;;;2.70;2.50;;;19.10;51.60;20.20;100720.00;;;;5068355;28;20180;-51
2022/04/13 08:09:10;;;;;;;2.80;2.60;;;19.10;51.60;20.20;100718.00;;;;5067748;28;20205;-51
2022/04/13 08:11:36;;;;;;;2.63;2.43;;;19.20;51.70;20.20;100717.00;;;;5067313;28;20185;-52
2022/04/13 08:14:01;;;;;;;3.40;2.80;;;19.10;51.60;20.20;100733.00;;;;5067457;28;20173;-51
2022/04/13 08:16:27;;;;;;;2.97;2.67;;;19.10;51.60;20.20;100737.00;;;;5069216;28;20706;-51
2022/04/13 08:18:53;;;;;;;3.97;2.80;;;19.20;51.70;20.20;100741.00;;;;5067579;28;20181;-52
2022/04/13 08:21:19;;;;;;;2.97;2.67;;;19.10;51.70;20.20;100732.00;;;;5067480;28;20204;-52
2022/04/13 08:23:46;;;;;;;4.70;2.70;;;19.20;51.70;20.20;100726.00;;;;5067915;28;20196;-51
2022/04/13 08:26:11;;;;;;;3.10;2.70;;;19.10;51.90;20.20;100734.00;;;;5068197;28;20181;-51
2022/04/13 08:28:37;;;;;;;3.20;2.63;;;19.10;52.60;20.20;100736.00;;;;5068636;28;20718;-52
2022/04/13 08:31:04;;;;;;;3.87;2.80;;;19.20;52.00;20.20;100735.00;;;;5067866;28;20204;-51
2022/04/13 08:33:31;;;;;;;3.60;2.70;;;19.20;52.10;20.20;100743.00;;;;5069252;28;20219;-51
2022/04/13 08:35:57;;;;;;;2.60;2.40;;;19.20;52.30;20.20;100746.00;;;;5068086;28;20211;-51
2022/04/13 08:38:22;;;;;;;3.73;2.77;;;19.30;52.40;20.30;100746.00;;;;5066864;28;20178;-50
2022/04/13 08:40:58;;;;;;;7.10;2.80;;;19.30;52.50;20.30;100749.00;;;;5067081;28;20204;-51
2022/04/13 08:43:43;;;;;;;3.17;2.77;;;19.30;52.70;20.30;100741.00;;;;5062030;28;20212;-51
2022/04/13 08:46:21;;;;;;;3.10;2.57;;;19.20;52.50;20.30;100746.00;;;;5067186;28;20185;-51
2022/04/13 08:48:47;;;;;;;3.27;2.70;;;19.30;52.80;20.30;100745.00;;;;5037293;28;20260;-50
2022/04/13 08:51:15;;;;;;;2.90;2.60;;;19.30;52.70;20.30;100756.00;;;;5013779;28;20204;-53
2022/04/13 08:53:43;;;;;;;4.00;2.57;;;19.40;52.90;20.30;100764.00;;;;5040701;28;20173;-52
2022/04/13 08:56:09;;;;;;;2.67;2.43;;;19.30;52.90;20.30;100747.00;;;;5068607;28;20722;-52
2022/04/13 09:00:00;;;;;;;3.10;2.80;;;19.40;52.90;20.30;100757.00;;;;5069031;28;20178;-51
2022/04/13 09:02:45;;;;;;;3.07;2.80;;;19.40;52.90;20.30;100761.00;;;;5039689;28;20319;-50
2022/04/13 09:05:14;;;;;;;2.73;2.50;;;19.30;53.00;20.30;100766.00;;;;5070875;28;20253;-51
2022/04/13 09:07:40;;;;;;;3.27;2.70;;;19.30;53.30;20.30;100768.00;;;;5052831;28;20297;-50
2022/04/13 09:10:07;;;;;;;3.97;2.90;;;19.40;53.30;20.30;100758.00;;;;5068149;28;20867;-51
2022/04/13 09:12:33;;;;;;;3.80;2.83;;;19.40;53.50;20.30;100760.00;;;;5051469;28;20172;-51
2022/04/13 09:15:03;;;;;;;3.13;2.67;;;19.40;53.40;20.40;100745.00;;;;5051718;28;20189;-51
2022/04/13 09:17:29;;;;;;;2.97;2.50;;;19.40;53.50;20.40;100753.00;;;;5068712;28;20527;-51
2022/04/13 09:19:56;;;;;;;2.90;2.60;;;19.40;53.50;20.40;100762.00;;;;5070707;28;20185;-51
2022/04/13 09:22:22;;;;;;;3.43;2.90;;;19.40;53.40;20.40;100761.00;;;;5071632;28;20235;-51
2022/04/13 09:24:48;;;;;;;3.10;2.80;;;19.40;53.40;20.40;100753.00;;;;5069188;28;20260;-52
2022/04/13 09:27:14;;;;;;;4.40;2.90;;;19.40;53.40;20.40;100770.00;;;;5067926;28;20205;-51
2022/04/13 09:29:39;;;;;;;3.00;2.70;;;19.40;53.50;20.40;100753.00;;;;5067917;28;20208;-51
2022/04/13 09:32:06;;;;;;;3.10;2.80;;;19.40;53.50;20.40;100767.00;;;;5067530;28;20182;-51
2022/04/13 09:34:32;;;;;;;3.03;2.73;;;19.40;53.60;20.40;100758.00;;;;5051173;28;20650;-51
2022/04/13 09:36:58;;;;;;;3.70;2.83;;;19.40;53.70;20.50;100752.00;;;;5067127;28;20161;-51
2022/04/13 09:39:23;;;;;;;4.17;2.70;;;19.50;53.80;20.40;100753.00;;;;5067941;28;20597;-51
2022/04/13 09:41:49;;;;;;;3.90;2.93;;;19.40;54.10;20.40;100754.00;;;;5068988;28;20884;-52
2022/04/13 09:44:15;;;;;;;3.20;2.73;;;19.50;54.20;20.50;100753.00;;;;5034887;28;20276;-52
2022/04/13 09:46:42;;;;;;;3.10;2.80;;;19.50;54.20;20.50;100757.00;;;;5068808;28;20173;-54
2022/04/13 09:49:18;;;;;;;7.03;3.00;;;19.50;54.20;20.50;100753.00;;;;5069017;28;20193;-51
2022/04/13 09:51:48;;;;;;;3.63;3.13;;;19.50;54.20;20.50;100763.00;;;;4966823;28;21992;-51
2022/04/13 09:54:15;;;;;;;3.93;2.70;;;19.50;54.30;20.50;100755.00;;;;5068994;28;20158;-51
2022/04/13 09:56:49;;;;;;;3.10;2.50;;;19.50;54.30;20.50;100759.00;;;;5069451;28;20189;-52
2022/04/13 09:59:31;;;;;;;3.40;2.87;;;19.50;54.50;20.60;100742.00;;;;5069692;28;20160;-51
2022/04/13 10:01:57;;;;;;;4.43;3.07;;;19.60;54.60;20.60;100755.00;;;;5069078;28;20197;-51
2022/04/13 10:04:28;;;;;;;3.00;2.60;;;19.60;54.70;20.60;100766.00;;;;5069803;28;20634;-52
2022/04/13 10:06:54;;;;;;;3.13;2.67;;;19.60;54.70;20.60;100764.00;;;;5073257;28;20208;-51
2022/04/13 10:09:22;;;;;;;4.30;2.60;;;19.60;54.70;20.60;100757.00;;;;5076475;28;20221;-52
2022/04/13 10:12:05;;;;;;;3.50;2.83;;;19.60;54.90;20.60;100771.00;;;;5067525;28;20181;-51
2022/04/13 10:14:31;;;;;;;3.93;2.67;;;19.60;54.80;20.60;100761.00;;;;5068949;28;20642;-51
2022/04/13 10:17:12;;;;;;;3.87;2.67;;;19.60;55.00;20.60;100764.00;;;;5068563;28;20162;-52
2022/04/13 10:19:42;;;;;;;3.53;2.90;;;19.60;55.10;20.60;100761.00;;;;5068925;28;20230;-52
2022/04/13 10:22:07;;;;;;;3.67;2.90;;;19.60;55.30;20.60;100761.00;;;;5067271;28;20281;-51
2022/04/13 10:24:35;;;;;;;4.33;2.80;;;19.60;55.10;20.60;100764.00;;;;5068632;28;20178;-52
2022/04/13 10:27:20;;;;;;;3.77;2.80;;;19.60;55.20;20.60;100767.00;;;;5069011;28;20166;-52
2022/04/13 10:29:49;;;;;;;3.90;2.80;;;19.70;55.30;20.60;100765.00;;;;5068984;28;20215;-52
2022/04/13 10:32:16;;;;;;;3.53;2.43;;;19.70;55.50;20.60;100767.00;;;;5068372;28;20195;-52
2022/04/13 10:34:50;;;;;;;2.83;2.50;;;19.70;55.60;20.60;100772.00;;;;5080305;28;20165;-51
2022/04/13 10:37:19;;;;;;;3.03;2.60;;;19.70;55.50;20.60;100773.00;;;;5084812;28;20162;-54
2022/04/13 10:39:46;;;;;;;3.20;2.60;;;19.70;55.80;20.60;100772.00;;;;5083599;28;20273;-54
2022/04/13 10:42:16;;;;;;;3.07;2.47;;;19.80;56.00;20.70;100779.00;;;;5082085;28;20606;-51
2022/04/13 10:45:06;;;;;;;3.60;2.77;;;19.80;55.90;20.70;100783.00;;;;5071925;28;20510;-51
2022/04/13 10:47:56;;;;;;;3.80;2.37;;;19.80;55.80;20.70;100782.00;;;;5068756;28;20197;-51